sensor_id;sensor_type;location;lat;lon;timestamp;temperature;humidity
62916;DHT22;49010;51.230;-2.306;2023-02-21T00:00:59;11.10;95.20
62916;DHT22;49010;51.230;-2.306;2023-02-21T00:04:59;11.10;95.50
62916;DHT22;49010;51.230;-2.306;2023-02-21T00:09:00;11.10;95.30
62916;DHT22;49010;51.230;-2.306;2023-02-21T00:13:00;11.10;95.30
62916;DHT22;49010;51.230;-2.306;2023-02-21T00:17:01;11.10;95.40
62916;DHT22;49010;51.230;-2.306;2023-02-21T00:21:01;11.10;95.30
62916;DHT22;49010;51.230;-2.306;2023-02-21T00:25:02;11.10;95.40
62916;DHT22;49010;51.230;-2.306;2023-02-21T00:29:02;11.10;95.40
62916;DHT22;49010;51.230;-2.306;2023-02-21T00:33:03;11.10;95.40
62916;DHT22;49010;51.230;-2.306;2023-02-21T00:37:03;11.10;95.50
62916;DHT22;49010;51.230;-2.306;2023-02-21T00:41:04;11.00;95.50
62916;DHT22;49010;51.230;-2.306;2023-02-21T00:45:04;11.00;95.60
62916;DHT22;49010;51.230;-2.306;2023-02-21T00:49:05;11.00;95.60
62916;DHT22;49010;51.230;-2.306;2023-02-21T00:53:06;11.00;95.60
62916;DHT22;49010;51.230;-2.306;2023-02-21T00:57:06;11.00;95.60
62916;DHT22;49010;51.230;-2.306;2023-02-21T01:01:06;11.00;95.70
62916;DHT22;49010;51.230;-2.306;2023-02-21T01:05:07;11.00;95.70
62916;DHT22;49010;51.230;-2.306;2023-02-21T01:09:07;11.00;95.80
62916;DHT22;49010;51.230;-2.306;2023-02-21T01:13:08;10.90;95.80
62916;DHT22;49010;51.230;-2.306;2023-02-21T01:17:08;11.00;95.80
62916;DHT22;49010;51.230;-2.306;2023-02-21T01:21:13;10.90;95.90
62916;DHT22;49010;51.230;-2.306;2023-02-21T01:25:14;10.90;95.90
62916;DHT22;49010;51.230;-2.306;2023-02-21T01:29:15;10.90;95.80
62916;DHT22;49010;51.230;-2.306;2023-02-21T01:33:15;10.90;95.80
62916;DHT22;49010;51.230;-2.306;2023-02-21T01:37:16;10.90;95.80
62916;DHT22;49010;51.230;-2.306;2023-02-21T01:41:16;10.90;95.80
62916;DHT22;49010;51.230;-2.306;2023-02-21T01:49:21;10.90;95.80
62916;DHT22;49010;51.230;-2.306;2023-02-21T01:53:23;10.80;95.80
62916;DHT22;49010;51.230;-2.306;2023-02-21T01:57:24;10.80;95.90
62916;DHT22;49010;51.230;-2.306;2023-02-21T02:02:17;10.80;95.90
62916;DHT22;49010;51.230;-2.306;2023-02-21T02:05:55;10.80;95.90
62916;DHT22;49010;51.230;-2.306;2023-02-21T02:09:55;10.80;95.90
62916;DHT22;49010;51.230;-2.306;2023-02-21T02:18:10;10.70;95.90
62916;DHT22;49010;51.230;-2.306;2023-02-21T02:46:23;10.70;95.70
62916;DHT22;49010;51.230;-2.306;2023-02-21T02:50:07;10.60;95.40
62916;DHT22;49010;51.230;-2.306;2023-02-21T02:53:50;10.60;95.40
62916;DHT22;49010;51.230;-2.306;2023-02-21T02:57:32;10.50;95.20
62916;DHT22;49010;51.230;-2.306;2023-02-21T03:09:13;10.50;95.20
62916;DHT22;49010;51.230;-2.306;2023-02-21T03:16:59;10.40;95.30
62916;DHT22;49010;51.230;-2.306;2023-02-21T03:20:42;10.40;95.10
62916;DHT22;49010;51.230;-2.306;2023-02-21T03:24:26;10.40;95.20
62916;DHT22;49010;51.230;-2.306;2023-02-21T03:28:08;10.30;95.20
62916;DHT22;49010;51.230;-2.306;2023-02-21T03:35:58;10.30;95.40
62916;DHT22;49010;51.230;-2.306;2023-02-21T03:39:40;10.30;95.30
62916;DHT22;49010;51.230;-2.306;2023-02-21T03:43:22;10.30;95.20
62916;DHT22;49010;51.230;-2.306;2023-02-21T03:47:04;10.20;95.20
62916;DHT22;49010;51.230;-2.306;2023-02-21T03:50:46;10.20;95.30
62916;DHT22;49010;51.230;-2.306;2023-02-21T03:54:27;10.20;95.30
62916;DHT22;49010;51.230;-2.306;2023-02-21T03:58:09;10.20;95.30
62916;DHT22;49010;51.230;-2.306;2023-02-21T04:01:51;10.20;95.40
62916;DHT22;49010;51.230;-2.306;2023-02-21T04:05:33;10.10;95.40
62916;DHT22;49010;51.230;-2.306;2023-02-21T04:09:14;10.10;95.40
62916;DHT22;49010;51.230;-2.306;2023-02-21T04:12:56;10.10;95.40
62916;DHT22;49010;51.230;-2.306;2023-02-21T04:16:38;10.10;95.40
62916;DHT22;49010;51.230;-2.306;2023-02-21T04:20:20;10.10;95.30
62916;DHT22;49010;51.230;-2.306;2023-02-21T04:24:02;10.10;95.30
62916;DHT22;49010;51.230;-2.306;2023-02-21T04:27:44;10.00;95.30
62916;DHT22;49010;51.230;-2.306;2023-02-21T04:31:25;9.90;95.30
62916;DHT22;49010;51.230;-2.306;2023-02-21T04:35:07;9.90;95.40
62916;DHT22;49010;51.230;-2.306;2023-02-21T04:38:49;9.90;95.50
62916;DHT22;49010;51.230;-2.306;2023-02-21T04:42:31;9.90;95.50
62916;DHT22;49010;51.230;-2.306;2023-02-21T04:46:14;9.80;95.50
62916;DHT22;49010;51.230;-2.306;2023-02-21T04:49:56;9.80;95.60
62916;DHT22;49010;51.230;-2.306;2023-02-21T04:53:39;9.80;95.60
62916;DHT22;49010;51.230;-2.306;2023-02-21T04:57:21;9.80;95.60
62916;DHT22;49010;51.230;-2.306;2023-02-21T05:01:02;9.80;95.70
62916;DHT22;49010;51.230;-2.306;2023-02-21T05:04:44;9.80;95.70
62916;DHT22;49010;51.230;-2.306;2023-02-21T05:08:26;9.80;95.70
62916;DHT22;49010;51.230;-2.306;2023-02-21T05:12:09;9.70;95.80
62916;DHT22;49010;51.230;-2.306;2023-02-21T05:15:52;9.70;95.80
62916;DHT22;49010;51.230;-2.306;2023-02-21T05:19:33;9.70;95.90
62916;DHT22;49010;51.230;-2.306;2023-02-21T05:23:16;9.70;95.90
62916;DHT22;49010;51.230;-2.306;2023-02-21T05:27:00;9.80;95.90
62916;DHT22;49010;51.230;-2.306;2023-02-21T05:30:41;9.80;95.90
62916;DHT22;49010;51.230;-2.306;2023-02-21T05:34:23;9.80;95.90
62916;DHT22;49010;51.230;-2.306;2023-02-21T05:38:05;9.80;95.90
62916;DHT22;49010;51.230;-2.306;2023-02-21T05:41:48;9.80;95.90
62916;DHT22;49010;51.230;-2.306;2023-02-21T05:45:30;9.80;95.90
62916;DHT22;49010;51.230;-2.306;2023-02-21T05:49:12;9.70;95.80
62916;DHT22;49010;51.230;-2.306;2023-02-21T05:52:55;9.70;95.90
62916;DHT22;49010;51.230;-2.306;2023-02-21T05:56:41;9.70;95.90
62916;DHT22;49010;51.230;-2.306;2023-02-21T06:00:26;9.70;96.00
62916;DHT22;49010;51.230;-2.306;2023-02-21T06:04:08;9.70;96.00
62916;DHT22;49010;51.230;-2.306;2023-02-21T06:07:50;9.70;96.10
62916;DHT22;49010;51.230;-2.306;2023-02-21T06:11:34;9.70;96.40
62916;DHT22;49010;51.230;-2.306;2023-02-21T06:15:18;9.70;96.20
62916;DHT22;49010;51.230;-2.306;2023-02-21T06:19:00;9.70;96.20
62916;DHT22;49010;51.230;-2.306;2023-02-21T06:22:42;9.70;96.20
62916;DHT22;49010;51.230;-2.306;2023-02-21T06:26:24;9.70;96.30
62916;DHT22;49010;51.230;-2.306;2023-02-21T06:30:07;9.60;96.30
62916;DHT22;49010;51.230;-2.306;2023-02-21T06:33:49;9.60;96.40
62916;DHT22;49010;51.230;-2.306;2023-02-21T06:37:31;9.60;96.40
62916;DHT22;49010;51.230;-2.306;2023-02-21T06:41:14;9.50;96.40
62916;DHT22;49010;51.230;-2.306;2023-02-21T06:44:57;9.60;96.50
62916;DHT22;49010;51.230;-2.306;2023-02-21T06:48:38;9.60;96.50
62916;DHT22;49010;51.230;-2.306;2023-02-21T06:52:20;9.60;96.50
62916;DHT22;49010;51.230;-2.306;2023-02-21T06:56:03;9.60;96.40
62916;DHT22;49010;51.230;-2.306;2023-02-21T06:59:45;9.60;96.50
62916;DHT22;49010;51.230;-2.306;2023-02-21T07:03:27;9.60;96.50
62916;DHT22;49010;51.230;-2.306;2023-02-21T07:07:09;9.50;96.60
62916;DHT22;49010;51.230;-2.306;2023-02-21T07:10:51;9.60;96.60
62916;DHT22;49010;51.230;-2.306;2023-02-21T07:14:32;9.60;96.60
62916;DHT22;49010;51.230;-2.306;2023-02-21T07:18:14;9.60;96.60
62916;DHT22;49010;51.230;-2.306;2023-02-21T07:21:56;9.60;96.60
62916;DHT22;49010;51.230;-2.306;2023-02-21T07:25:38;9.60;96.60
62916;DHT22;49010;51.230;-2.306;2023-02-21T07:29:20;9.60;96.60
62916;DHT22;49010;51.230;-2.306;2023-02-21T07:33:01;9.60;96.60
62916;DHT22;49010;51.230;-2.306;2023-02-21T07:36:43;9.60;96.70
62916;DHT22;49010;51.230;-2.306;2023-02-21T07:40:25;9.50;96.70
62916;DHT22;49010;51.230;-2.306;2023-02-21T07:44:07;9.60;96.80
62916;DHT22;49010;51.230;-2.306;2023-02-21T07:47:49;9.60;96.80
62916;DHT22;49010;51.230;-2.306;2023-02-21T07:51:32;9.60;96.80
62916;DHT22;49010;51.230;-2.306;2023-02-21T07:55:14;9.60;96.80
62916;DHT22;49010;51.230;-2.306;2023-02-21T07:58:55;9.60;96.90
62916;DHT22;49010;51.230;-2.306;2023-02-21T08:02:37;9.60;96.90
62916;DHT22;49010;51.230;-2.306;2023-02-21T08:06:19;9.60;97.00
62916;DHT22;49010;51.230;-2.306;2023-02-21T08:10:01;9.60;97.00
62916;DHT22;49010;51.230;-2.306;2023-02-21T08:13:42;9.60;97.00
62916;DHT22;49010;51.230;-2.306;2023-02-21T08:17:25;9.70;97.10
62916;DHT22;49010;51.230;-2.306;2023-02-21T08:21:08;9.60;97.00
62916;DHT22;49010;51.230;-2.306;2023-02-21T08:24:51;9.60;97.00
62916;DHT22;49010;51.230;-2.306;2023-02-21T08:28:32;9.60;97.10
62916;DHT22;49010;51.230;-2.306;2023-02-21T08:32:14;9.60;97.10
62916;DHT22;49010;51.230;-2.306;2023-02-21T08:35:56;9.70;97.10
62916;DHT22;49010;51.230;-2.306;2023-02-21T08:39:38;9.70;97.20
62916;DHT22;49010;51.230;-2.306;2023-02-21T08:43:20;9.80;97.20
62916;DHT22;49010;51.230;-2.306;2023-02-21T08:47:02;9.80;97.20
62916;DHT22;49010;51.230;-2.306;2023-02-21T08:50:44;9.80;97.20
62916;DHT22;49010;51.230;-2.306;2023-02-21T08:54:25;9.90;97.20
62916;DHT22;49010;51.230;-2.306;2023-02-21T08:58:09;9.90;97.20
62916;DHT22;49010;51.230;-2.306;2023-02-21T09:01:52;9.90;97.20
62916;DHT22;49010;51.230;-2.306;2023-02-21T09:05:34;9.90;97.20
62916;DHT22;49010;51.230;-2.306;2023-02-21T09:09:15;10.00;97.20
62916;DHT22;49010;51.230;-2.306;2023-02-21T09:12:57;10.00;97.40
62916;DHT22;49010;51.230;-2.306;2023-02-21T09:16:39;10.00;97.10
62916;DHT22;49010;51.230;-2.306;2023-02-21T09:20:23;10.00;97.10
62916;DHT22;49010;51.230;-2.306;2023-02-21T09:24:06;10.00;97.00
62916;DHT22;49010;51.230;-2.306;2023-02-21T09:27:48;10.00;97.00
62916;DHT22;49010;51.230;-2.306;2023-02-21T09:31:29;9.90;97.30
62916;DHT22;49010;51.230;-2.306;2023-02-21T09:35:12;9.90;97.00
62916;DHT22;49010;51.230;-2.306;2023-02-21T09:38:54;9.90;97.00
62916;DHT22;49010;51.230;-2.306;2023-02-21T09:42:37;9.90;97.10
62916;DHT22;49010;51.230;-2.306;2023-02-21T09:46:39;9.90;97.20
62916;DHT22;49010;51.230;-2.306;2023-02-21T09:50:26;10.00;97.20
62916;DHT22;49010;51.230;-2.306;2023-02-21T09:58:00;10.00;97.10
62916;DHT22;49010;51.230;-2.306;2023-02-21T10:14:29;10.20;97.10
62916;DHT22;49010;51.230;-2.306;2023-02-21T10:18:30;10.20;97.20
62916;DHT22;49010;51.230;-2.306;2023-02-21T10:22:24;10.20;97.20
62916;DHT22;49010;51.230;-2.306;2023-02-21T10:26:10;10.30;97.20
62916;DHT22;49010;51.230;-2.306;2023-02-21T10:30:00;10.30;97.10
62916;DHT22;49010;51.230;-2.306;2023-02-21T10:33:45;10.50;97.10
62916;DHT22;49010;51.230;-2.306;2023-02-21T10:41:36;10.50;97.00
62916;DHT22;49010;51.230;-2.306;2023-02-21T10:45:23;10.50;97.10
62916;DHT22;49010;51.230;-2.306;2023-02-21T10:49:48;10.60;96.90
62916;DHT22;49010;51.230;-2.306;2023-02-21T10:53:35;10.60;97.20
62916;DHT22;49010;51.230;-2.306;2023-02-21T10:57:17;10.70;96.90
62916;DHT22;49010;51.230;-2.306;2023-02-21T11:05:07;10.80;96.60
62916;DHT22;49010;51.230;-2.306;2023-02-21T11:08:51;10.80;96.60
62916;DHT22;49010;51.230;-2.306;2023-02-21T11:12:33;10.80;96.50
62916;DHT22;49010;51.230;-2.306;2023-02-21T11:16:17;10.90;96.60
62916;DHT22;49010;51.230;-2.306;2023-02-21T11:20:19;11.00;96.60
62916;DHT22;49010;51.230;-2.306;2023-02-21T11:24:03;11.10;96.60
62916;DHT22;49010;51.230;-2.306;2023-02-21T11:28:05;11.20;96.30
62916;DHT22;49010;51.230;-2.306;2023-02-21T11:31:47;11.20;96.30
62916;DHT22;49010;51.230;-2.306;2023-02-21T11:35:33;11.20;95.80
62916;DHT22;49010;51.230;-2.306;2023-02-21T11:39:19;11.20;95.80
62916;DHT22;49010;51.230;-2.306;2023-02-21T11:43:25;11.20;95.40
62916;DHT22;49010;51.230;-2.306;2023-02-21T11:47:31;11.20;95.70
62916;DHT22;49010;51.230;-2.306;2023-02-21T11:51:47;11.20;95.70
62916;DHT22;49010;51.230;-2.306;2023-02-21T11:55:27;11.30;95.40
62916;DHT22;49010;51.230;-2.306;2023-02-21T12:03:05;11.50;95.10
62916;DHT22;49010;51.230;-2.306;2023-02-21T12:11:05;11.60;94.40
62916;DHT22;49010;51.230;-2.306;2023-02-21T12:23:06;11.70;93.80
62916;DHT22;49010;51.230;-2.306;2023-02-21T12:27:18;11.70;93.60
62916;DHT22;49010;51.230;-2.306;2023-02-21T12:39:22;12.10;93.70
62916;DHT22;49010;51.230;-2.306;2023-02-21T12:47:12;12.40;93.30
62916;DHT22;49010;51.230;-2.306;2023-02-21T12:51:01;12.50;93.00
62916;DHT22;49010;51.230;-2.306;2023-02-21T12:55:06;12.50;92.10
62916;DHT22;49010;51.230;-2.306;2023-02-21T12:58:59;12.50;91.80
62916;DHT22;49010;51.230;-2.306;2023-02-21T13:07:11;13.10;91.90
62916;DHT22;49010;51.230;-2.306;2023-02-21T13:11:26;13.40;90.20
62916;DHT22;49010;51.230;-2.306;2023-02-21T13:15:22;13.40;89.90
62916;DHT22;49010;51.230;-2.306;2023-02-21T13:19:08;13.50;90.30
62916;DHT22;49010;51.230;-2.306;2023-02-21T13:27:53;14.00;90.30
62916;DHT22;49010;51.230;-2.306;2023-02-21T13:31:41;15.20;89.00
62916;DHT22;49010;51.230;-2.306;2023-02-21T13:35:31;16.50;82.10
62916;DHT22;49010;51.230;-2.306;2023-02-21T13:39:19;17.10;77.60
62916;DHT22;49010;51.230;-2.306;2023-02-21T13:43:15;17.20;76.90
62916;DHT22;49010;51.230;-2.306;2023-02-21T13:47:08;17.60;75.80
62916;DHT22;49010;51.230;-2.306;2023-02-21T13:50:53;18.20;72.40
62916;DHT22;49010;51.230;-2.306;2023-02-21T13:58:49;18.20;71.50
62916;DHT22;49010;51.230;-2.306;2023-02-21T14:02:33;17.90;68.30
62916;DHT22;49010;51.230;-2.306;2023-02-21T14:06:25;17.50;69.40
62916;DHT22;49010;51.230;-2.306;2023-02-21T14:10:38;17.40;70.80
62916;DHT22;49010;51.230;-2.306;2023-02-21T14:14:27;17.60;71.50
62916;DHT22;49010;51.230;-2.306;2023-02-21T14:18:16;17.90;69.80
62916;DHT22;49010;51.230;-2.306;2023-02-21T14:22:16;18.40;67.50
62916;DHT22;49010;51.230;-2.306;2023-02-21T14:26:02;18.70;67.40
62916;DHT22;49010;51.230;-2.306;2023-02-21T14:33:56;18.50;67.80
62916;DHT22;49010;51.230;-2.306;2023-02-21T14:37:44;18.80;65.00
62916;DHT22;49010;51.230;-2.306;2023-02-21T15:06:04;17.00;70.40
62916;DHT22;49010;51.230;-2.306;2023-02-21T15:10:16;16.80;69.50
62916;DHT22;49010;51.230;-2.306;2023-02-21T15:14:16;16.80;71.40
62916;DHT22;49010;51.230;-2.306;2023-02-21T15:18:06;16.80;71.00
62916;DHT22;49010;51.230;-2.306;2023-02-21T15:22:05;16.90;69.70
62916;DHT22;49010;51.230;-2.306;2023-02-21T15:25:55;17.00;68.40
62916;DHT22;49010;51.230;-2.306;2023-02-21T15:29:38;17.00;69.60
62916;DHT22;49010;51.230;-2.306;2023-02-21T15:33:20;16.90;68.90
62916;DHT22;49010;51.230;-2.306;2023-02-21T15:37:21;16.80;69.40
62916;DHT22;49010;51.230;-2.306;2023-02-21T15:45:08;16.20;72.20
62916;DHT22;49010;51.230;-2.306;2023-02-21T15:48:54;15.90;71.40
62916;DHT22;49010;51.230;-2.306;2023-02-21T15:56:22;15.30;73.90
62916;DHT22;49010;51.230;-2.306;2023-02-21T16:00:38;15.00;74.40
62916;DHT22;49010;51.230;-2.306;2023-02-21T16:04:21;14.90;75.90
62916;DHT22;49010;51.230;-2.306;2023-02-21T16:08:03;14.70;76.50
62916;DHT22;49010;51.230;-2.306;2023-02-21T16:15:41;14.40;77.50
62916;DHT22;49010;51.230;-2.306;2023-02-21T16:19:23;14.20;78.00
62916;DHT22;49010;51.230;-2.306;2023-02-21T16:23:30;14.10;78.20
62916;DHT22;49010;51.230;-2.306;2023-02-21T16:27:15;13.90;79.40
62916;DHT22;49010;51.230;-2.306;2023-02-21T16:30:59;13.80;79.20
62916;DHT22;49010;51.230;-2.306;2023-02-21T16:34:41;13.60;80.20
62916;DHT22;49010;51.230;-2.306;2023-02-21T16:38:24;13.60;80.60
62916;DHT22;49010;51.230;-2.306;2023-02-21T16:42:06;13.40;81.50
62916;DHT22;49010;51.230;-2.306;2023-02-21T16:45:50;13.30;82.00
62916;DHT22;49010;51.230;-2.306;2023-02-21T16:49:33;13.20;82.40
62916;DHT22;49010;51.230;-2.306;2023-02-21T16:53:16;13.20;82.20
62916;DHT22;49010;51.230;-2.306;2023-02-21T16:56:58;13.10;82.70
62916;DHT22;49010;51.230;-2.306;2023-02-21T17:00:40;13.00;82.80
62916;DHT22;49010;51.230;-2.306;2023-02-21T17:04:24;13.00;82.90
62916;DHT22;49010;51.230;-2.306;2023-02-21T17:08:10;13.00;82.60
62916;DHT22;49010;51.230;-2.306;2023-02-21T17:11:52;12.90;83.10
62916;DHT22;49010;51.230;-2.306;2023-02-21T17:15:34;12.80;83.20
62916;DHT22;49010;51.230;-2.306;2023-02-21T17:19:19;12.80;83.90
62916;DHT22;49010;51.230;-2.306;2023-02-21T17:23:02;12.60;83.10
62916;DHT22;49010;51.230;-2.306;2023-02-21T17:26:44;12.50;83.50
62916;DHT22;49010;51.230;-2.306;2023-02-21T17:30:25;12.50;83.50
62916;DHT22;49010;51.230;-2.306;2023-02-21T17:34:07;12.40;84.00
62916;DHT22;49010;51.230;-2.306;2023-02-21T17:37:49;12.30;84.10
62916;DHT22;49010;51.230;-2.306;2023-02-21T17:41:32;12.20;84.00
62916;DHT22;49010;51.230;-2.306;2023-02-21T17:45:18;12.20;84.20
62916;DHT22;49010;51.230;-2.306;2023-02-21T17:49:00;12.10;84.40
62916;DHT22;49010;51.230;-2.306;2023-02-21T17:52:42;12.00;84.60
62916;DHT22;49010;51.230;-2.306;2023-02-21T17:56:24;12.00;84.70
62916;DHT22;49010;51.230;-2.306;2023-02-21T18:00:09;11.90;84.50
62916;DHT22;49010;51.230;-2.306;2023-02-21T18:03:54;11.90;84.90
62916;DHT22;49010;51.230;-2.306;2023-02-21T18:07:35;11.80;85.10
62916;DHT22;49010;51.230;-2.306;2023-02-21T18:11:17;11.80;85.30
62916;DHT22;49010;51.230;-2.306;2023-02-21T18:15:00;11.80;85.40
62916;DHT22;49010;51.230;-2.306;2023-02-21T18:18:42;11.80;85.10
62916;DHT22;49010;51.230;-2.306;2023-02-21T18:22:24;11.80;85.50
62916;DHT22;49010;51.230;-2.306;2023-02-21T18:26:05;11.70;85.70
62916;DHT22;49010;51.230;-2.306;2023-02-21T18:29:47;11.70;85.80
62916;DHT22;49010;51.230;-2.306;2023-02-21T18:33:34;11.70;85.90
62916;DHT22;49010;51.230;-2.306;2023-02-21T18:37:17;11.70;85.80
62916;DHT22;49010;51.230;-2.306;2023-02-21T18:40:59;11.70;85.60
62916;DHT22;49010;51.230;-2.306;2023-02-21T18:44:42;11.60;85.70
62916;DHT22;49010;51.230;-2.306;2023-02-21T18:48:25;11.50;85.50
62916;DHT22;49010;51.230;-2.306;2023-02-21T18:52:07;11.40;85.70
62916;DHT22;49010;51.230;-2.306;2023-02-21T18:55:49;11.40;85.70
62916;DHT22;49010;51.230;-2.306;2023-02-21T18:59:33;11.30;85.60
62916;DHT22;49010;51.230;-2.306;2023-02-21T19:03:15;11.30;85.60
62916;DHT22;49010;51.230;-2.306;2023-02-21T19:06:57;11.20;85.60
62916;DHT22;49010;51.230;-2.306;2023-02-21T19:10:38;11.10;85.80
62916;DHT22;49010;51.230;-2.306;2023-02-21T19:14:20;11.10;85.80
62916;DHT22;49010;51.230;-2.306;2023-02-21T19:18:02;11.10;85.90
62916;DHT22;49010;51.230;-2.306;2023-02-21T19:21:44;11.00;86.20
62916;DHT22;49010;51.230;-2.306;2023-02-21T19:25:26;11.00;86.20
62916;DHT22;49010;51.230;-2.306;2023-02-21T19:29:09;11.00;86.40
62916;DHT22;49010;51.230;-2.306;2023-02-21T19:32:51;11.00;86.30
62916;DHT22;49010;51.230;-2.306;2023-02-21T19:36:33;11.00;86.30
62916;DHT22;49010;51.230;-2.306;2023-02-21T19:40:15;11.00;86.30
62916;DHT22;49010;51.230;-2.306;2023-02-21T19:43:57;11.00;86.30
62916;DHT22;49010;51.230;-2.306;2023-02-21T19:47:39;10.90;86.50
62916;DHT22;49010;51.230;-2.306;2023-02-21T19:51:23;10.90;86.70
62916;DHT22;49010;51.230;-2.306;2023-02-21T19:55:06;10.90;86.90
62916;DHT22;49010;51.230;-2.306;2023-02-21T19:58:48;10.80;86.90
62916;DHT22;49010;51.230;-2.306;2023-02-21T20:02:31;10.80;87.00
62916;DHT22;49010;51.230;-2.306;2023-02-21T20:06:15;10.80;86.90
62916;DHT22;49010;51.230;-2.306;2023-02-21T20:09:57;10.70;86.80
62916;DHT22;49010;51.230;-2.306;2023-02-21T20:13:41;10.70;86.90
62916;DHT22;49010;51.230;-2.306;2023-02-21T20:17:24;10.70;87.10
62916;DHT22;49010;51.230;-2.306;2023-02-21T20:21:08;10.70;87.10
62916;DHT22;49010;51.230;-2.306;2023-02-21T20:24:50;10.60;87.30
62916;DHT22;49010;51.230;-2.306;2023-02-21T20:28:32;10.60;87.50
62916;DHT22;49010;51.230;-2.306;2023-02-21T20:32:14;10.60;87.60
62916;DHT22;49010;51.230;-2.306;2023-02-21T20:35:59;10.60;87.70
62916;DHT22;49010;51.230;-2.306;2023-02-21T20:39:40;10.60;87.60
62916;DHT22;49010;51.230;-2.306;2023-02-21T20:43:22;10.50;87.50
62916;DHT22;49010;51.230;-2.306;2023-02-21T20:47:06;10.50;87.80
62916;DHT22;49010;51.230;-2.306;2023-02-21T20:50:51;10.50;88.00
62916;DHT22;49010;51.230;-2.306;2023-02-21T20:54:33;10.40;87.90
62916;DHT22;49010;51.230;-2.306;2023-02-21T20:58:14;10.40;88.10
62916;DHT22;49010;51.230;-2.306;2023-02-21T21:01:57;10.40;88.90
62916;DHT22;49010;51.230;-2.306;2023-02-21T21:05:40;10.40;88.30
62916;DHT22;49010;51.230;-2.306;2023-02-21T21:09:23;10.30;88.50
62916;DHT22;49010;51.230;-2.306;2023-02-21T21:13:15;10.30;88.70
62916;DHT22;49010;51.230;-2.306;2023-02-21T21:16:58;10.30;88.70
62916;DHT22;49010;51.230;-2.306;2023-02-21T21:20:40;10.20;88.90
62916;DHT22;49010;51.230;-2.306;2023-02-21T21:24:22;10.20;89.10
62916;DHT22;49010;51.230;-2.306;2023-02-21T21:28:04;10.20;89.20
62916;DHT22;49010;51.230;-2.306;2023-02-21T21:31:51;10.20;89.60
62916;DHT22;49010;51.230;-2.306;2023-02-21T21:35:33;10.10;89.80
62916;DHT22;49010;51.230;-2.306;2023-02-21T21:39:17;10.10;89.70
62916;DHT22;49010;51.230;-2.306;2023-02-21T21:43:03;10.20;90.00
62916;DHT22;49010;51.230;-2.306;2023-02-21T21:46:49;10.10;89.90
62916;DHT22;49010;51.230;-2.306;2023-02-21T21:50:31;10.10;90.10
62916;DHT22;49010;51.230;-2.306;2023-02-21T21:54:15;10.10;90.20
62916;DHT22;49010;51.230;-2.306;2023-02-21T21:57:57;10.00;90.70
62916;DHT22;49010;51.230;-2.306;2023-02-21T22:01:39;9.90;90.60
62916;DHT22;49010;51.230;-2.306;2023-02-21T22:05:26;9.90;90.70
62916;DHT22;49010;51.230;-2.306;2023-02-21T22:09:09;9.90;90.80
62916;DHT22;49010;51.230;-2.306;2023-02-21T22:12:55;9.80;91.00
62916;DHT22;49010;51.230;-2.306;2023-02-21T22:16:42;9.90;91.50
62916;DHT22;49010;51.230;-2.306;2023-02-21T22:20:24;9.90;91.20
62916;DHT22;49010;51.230;-2.306;2023-02-21T22:24:12;9.90;91.20
62916;DHT22;49010;51.230;-2.306;2023-02-21T22:27:56;9.90;91.30
62916;DHT22;49010;51.230;-2.306;2023-02-21T22:31:38;9.90;91.30
62916;DHT22;49010;51.230;-2.306;2023-02-21T22:35:20;9.90;91.50
62916;DHT22;49010;51.230;-2.306;2023-02-21T22:39:04;9.90;91.50
62916;DHT22;49010;51.230;-2.306;2023-02-21T22:42:56;9.90;91.60
62916;DHT22;49010;51.230;-2.306;2023-02-21T22:46:42;9.90;91.70
62916;DHT22;49010;51.230;-2.306;2023-02-21T22:50:25;9.90;91.80
62916;DHT22;49010;51.230;-2.306;2023-02-21T22:54:07;9.90;91.80
62916;DHT22;49010;51.230;-2.306;2023-02-21T22:57:56;9.90;91.80
62916;DHT22;49010;51.230;-2.306;2023-02-21T23:01:38;9.90;91.90
62916;DHT22;49010;51.230;-2.306;2023-02-21T23:05:20;9.90;92.00
62916;DHT22;49010;51.230;-2.306;2023-02-21T23:09:03;9.90;92.00
62916;DHT22;49010;51.230;-2.306;2023-02-21T23:12:56;9.90;92.00
62916;DHT22;49010;51.230;-2.306;2023-02-21T23:16:39;9.90;91.90
62916;DHT22;49010;51.230;-2.306;2023-02-21T23:20:22;9.90;92.00
62916;DHT22;49010;51.230;-2.306;2023-02-21T23:24:10;9.90;92.10
62916;DHT22;49010;51.230;-2.306;2023-02-21T23:27:57;9.90;92.20
62916;DHT22;49010;51.230;-2.306;2023-02-21T23:31:45;9.80;92.20
62916;DHT22;49010;51.230;-2.306;2023-02-21T23:35:28;9.80;92.30
62916;DHT22;49010;51.230;-2.306;2023-02-21T23:39:11;9.80;92.30
62916;DHT22;49010;51.230;-2.306;2023-02-21T23:42:55;9.80;92.40
62916;DHT22;49010;51.230;-2.306;2023-02-21T23:46:39;9.90;92.40
62916;DHT22;49010;51.230;-2.306;2023-02-21T23:50:24;9.80;92.40
62916;DHT22;49010;51.230;-2.306;2023-02-21T23:54:11;9.80;92.50
62916;DHT22;49010;51.230;-2.306;2023-02-21T23:57:56;9.80;92.60
